Briefing drone pour Valencay

Rechercher une autre localisation

Conditions de vol :


Nous sommes le : Dimanche 20 septembre 2020
Il est 04:43 UTC (06:43 LT)

Lever de soleil : 05:11 UTC (07:11 LT)
Coucher de soleil : 18:21 UTC (20:21 LT)

Météo

L'essentiel des conditions de vol

VIGILANCE MÉTÉO FRANCE - Indre (36)
Vigilance Jaune : Orages
CARTE TEMSI
CARTES DES FRONTS
METAR de LFYR
LFYR 200430Z AUTO 00000KT 1600 1300 BR NSC 15/15 Q1013

Date d'émission: 20/09/2020
Heure d'émission: 04:30 UTC
Vent: Calme
Visibilité horizontale: 1600/1300 m
Plafond : Pas de nuages significatifs (NSC)
Température: 15 °C
Point de rosée: 15 °C
Humidité: 100%
Pression (QNH): 1013 hPa
Conditions: Brume
TAF de LFYR
AMD LFYR 021630Z 0216/0312 CNL

Conditions prévues :

Heure d'émission : Bulletin éffectué le 02 à 16:00 UTC
Prévision : Valide du 02 a 16:00 UTC au 03 a 12:00 UTC
Nuages : à 0ft (0 m)
WEBCAM POUR VALENCAY

Réglementation

Voler en sécurité

CARTES AERONAUTIQUE 1/500.000
CARTES VAC (LFYR)
SUP AIP




Chargement des AIP...
NOTAM (VALENCAY + Terrain à proximité / FIR )




Chargement des NOTAMS...
CONTACT PREFECTURE 36


Avertissement : Les données mises à disposition sont indicatives. Oxygène Drone ne pourra être tenu responsable de dégâts causés aux biens et aux personnes.